Time;durP1;ratioP1;P1;durP2;ratioP2;P2;SDS_P1;SDS_P2;PMS_P1;PMS_P2;Temp;Humidity;BMP_temperature;BMP_pressure;BME280_temperature;BME280_humidity;BME280_pressure;Samples;Min_cycle;Max_cycle;Signal;HPM_P1;HPM_P2
2021/10/07 14:25:52;;;;;;;15.90;11.50;;;12.80;82.60;;;;;;5069013;27;20449;-82
2021/10/07 14:28:18;;;;;;;18.83;13.13;;;12.50;83.30;;;;;;5074024;28;20033;-79
2021/10/07 14:30:47;;;;;;;23.60;16.17;;;12.70;83.00;;;;;;5061345;28;20047;-80
2021/10/07 14:33:13;;;;;;;11.80;6.83;;;13.00;81.80;;;;;;5061988;28;20548;-80
2021/10/07 14:35:39;;;;;;;18.93;13.17;;;13.10;80.60;;;;;;5060676;28;20021;-81
2021/10/07 14:38:05;;;;;;;35.80;25.67;;;13.30;80.10;;;;;;5055861;28;20031;-80
2021/10/07 14:40:32;;;;;;;26.00;19.23;;;13.40;79.10;;;;;;5061237;28;20108;-80
2021/10/07 14:42:58;;;;;;;22.67;17.60;;;13.40;78.80;;;;;;5063597;28;20025;-80
2021/10/07 14:45:23;;;;;;;9.33;7.63;;;13.40;78.50;;;;;;5060115;28;20040;-80
2021/10/07 14:47:50;;;;;;;9.67;8.20;;;13.40;77.90;;;;;;5061913;28;20090;-80
2021/10/07 14:50:18;;;;;;;13.63;7.77;;;13.40;77.50;;;;;;5060156;28;20406;-81
2021/10/07 14:52:44;;;;;;;10.17;6.27;;;13.30;77.30;;;;;;5059377;28;20045;-80
2021/10/07 14:55:13;;;;;;;15.20;12.50;;;13.30;77.30;;;;;;5062685;28;20078;-80
2021/10/07 14:57:39;;;;;;;6.10;4.30;;;13.40;77.10;;;;;;5058112;28;20025;-81
2021/10/07 15:00:09;;;;;;;64.73;43.87;;;13.40;76.60;;;;;;5056163;28;20420;-80
2021/10/07 15:02:36;;;;;;;37.33;24.77;;;13.30;76.50;;;;;;5061203;28;20348;-80
2021/10/07 15:05:03;;;;;;;12.90;10.57;;;13.20;76.60;;;;;;5061848;28;20036;-80
2021/10/07 15:07:29;;;;;;;10.50;6.93;;;13.20;76.50;;;;;;5062360;28;20024;-80
2021/10/07 15:09:55;;;;;;;7.37;3.63;;;13.20;76.40;;;;;;5064265;28;20514;-80
2021/10/07 15:12:20;;;;;;;9.90;6.83;;;13.10;75.90;;;;;;5061686;28;20059;-81
2021/10/07 15:14:46;;;;;;;5.20;3.47;;;13.00;76.00;;;;;;5057920;28;20025;-80
2021/10/07 15:17:12;;;;;;;3.37;2.57;;;13.00;76.30;;;;;;5061485;28;20021;-80
2021/10/07 15:19:38;;;;;;;5.60;3.10;;;12.90;76.00;;;;;;5060435;28;20063;-82
2021/10/07 15:22:07;;;;;;;6.87;2.60;;;12.90;76.10;;;;;;5058569;28;20498;-81
2021/10/07 15:24:34;;;;;;;11.33;3.97;;;12.90;75.80;;;;;;5050252;28;20055;-81
2021/10/07 15:27:00;;;;;;;13.63;7.03;;;12.80;75.90;;;;;;5059403;28;20053;-81
2021/10/07 15:29:26;;;;;;;9.70;8.20;;;12.90;76.00;;;;;;5062199;28;20021;-81
2021/10/07 15:31:51;;;;;;;9.23;7.60;;;12.90;75.90;;;;;;5058465;28;20083;-81
2021/10/07 15:34:18;;;;;;;7.53;6.60;;;12.90;75.90;;;;;;5065487;28;20112;-81
2021/10/07 15:36:44;;;;;;;9.50;6.10;;;12.90;76.00;;;;;;5047103;28;20375;-81
2021/10/07 15:39:10;;;;;;;16.50;10.93;;;13.00;76.00;;;;;;5048300;28;20476;-81
2021/10/07 15:41:36;;;;;;;41.13;20.20;;;13.00;76.00;;;;;;5050544;28;20044;-81
2021/10/07 15:44:02;;;;;;;23.93;13.17;;;13.00;75.90;;;;;;5047594;28;20440;-81
2021/10/07 15:46:28;;;;;;;8.40;5.17;;;13.00;75.70;;;;;;5049598;28;20026;-81
2021/10/07 15:48:55;;;;;;;30.87;18.73;;;12.90;75.70;;;;;;5050734;28;20116;-81
2021/10/07 15:51:22;;;;;;;19.07;12.67;;;12.90;75.90;;;;;;5044733;28;20025;-81
2021/10/07 15:53:47;;;;;;;14.83;10.90;;;12.90;76.10;;;;;;5050018;28;20036;-82
2021/10/07 15:56:13;;;;;;;13.07;9.00;;;12.90;76.20;;;;;;5049773;28;20489;-81
2021/10/07 15:58:40;;;;;;;15.33;10.53;;;13.00;76.40;;;;;;5050719;28;20544;-81
2021/10/07 16:01:06;;;;;;;20.13;14.73;;;13.00;76.20;;;;;;5045296;28;20024;-81
2021/10/07 16:03:33;;;;;;;6.43;4.53;;;13.00;76.40;;;;;;5051495;28;20112;-81
2021/10/07 16:05:59;;;;;;;9.87;5.70;;;13.00;76.40;;;;;;5049593;28;20108;-81
2021/10/07 16:08:26;;;;;;;9.00;5.90;;;13.00;76.40;;;;;;5064493;28;20104;-82
2021/10/07 16:10:53;;;;;;;6.23;4.10;;;13.00;76.20;;;;;;5050632;28;20483;-82
2021/10/07 16:13:21;;;;;;;6.27;4.13;;;12.90;76.40;;;;;;5051389;28;20506;-81
2021/10/07 16:15:47;;;;;;;8.93;5.77;;;13.00;76.50;;;;;;5051004;28;20033;-81
2021/10/07 16:18:13;;;;;;;6.07;4.33;;;13.00;76.40;;;;;;5043963;28;20041;-81
2021/10/07 16:20:39;;;;;;;7.47;4.30;;;13.00;76.40;;;;;;5047626;28;20514;-82
2021/10/07 16:23:05;;;;;;;5.37;3.10;;;13.00;76.30;;;;;;5051614;28;20025;-81
2021/10/07 16:25:32;;;;;;;4.63;3.20;;;13.00;76.40;;;;;;5050552;28;20059;-80
2021/10/07 16:27:57;;;;;;;9.77;5.97;;;13.00;76.50;;;;;;5043427;28;20025;-80
2021/10/07 16:30:23;;;;;;;7.30;4.30;;;13.00;76.50;;;;;;5050022;28;20029;-81
2021/10/07 16:32:50;;;;;;;5.17;4.20;;;13.00;76.40;;;;;;5054456;28;20446;-81
2021/10/07 16:35:16;;;;;;;5.63;2.83;;;13.00;76.40;;;;;;5049323;28;20025;-80
2021/10/07 16:37:43;;;;;;;5.83;3.97;;;13.00;76.20;;;;;;5036305;28;20471;-80
2021/10/07 16:40:10;;;;;;;5.87;4.47;;;13.10;76.10;;;;;;5048150;28;20024;-81
2021/10/07 16:42:36;;;;;;;5.77;3.57;;;13.00;76.00;;;;;;5044005;28;20108;-80
2021/10/07 16:45:03;;;;;;;6.10;4.00;;;13.00;76.00;;;;;;5065711;28;20083;-81
2021/10/07 16:47:29;;;;;;;5.07;3.67;;;13.00;76.00;;;;;;5045402;28;20098;-81
2021/10/07 16:49:55;;;;;;;5.70;3.90;;;13.00;75.90;;;;;;5045120;28;20025;-81
2021/10/07 16:52:21;;;;;;;8.10;4.53;;;13.00;75.80;;;;;;5049240;28;20486;-81
2021/10/07 16:54:46;;;;;;;5.83;3.80;;;12.90;75.70;;;;;;5051554;28;20078;-81
2021/10/07 16:57:12;;;;;;;4.87;2.70;;;12.90;75.70;;;;;;5047731;28;20682;-81
2021/10/07 16:59:38;;;;;;;6.57;3.23;;;12.80;75.60;;;;;;5060976;28;20028;-81
2021/10/07 17:02:04;;;;;;;5.37;2.30;;;12.80;75.70;;;;;;5039651;28;20082;-82
2021/10/07 17:04:30;;;;;;;6.67;3.40;;;12.70;75.70;;;;;;5051864;28;20484;-81
2021/10/07 17:06:56;;;;;;;4.70;2.83;;;12.70;75.90;;;;;;5051290;28;20027;-81
2021/10/07 17:09:22;;;;;;;8.87;2.80;;;12.70;76.00;;;;;;5049621;28;20052;-81
2021/10/07 17:11:48;;;;;;;3.60;2.57;;;12.80;76.00;;;;;;5050720;28;20403;-81
2021/10/07 17:14:14;;;;;;;5.07;2.90;;;12.80;76.00;;;;;;5050448;28;20031;-81
2021/10/07 17:16:40;;;;;;;2.80;2.07;;;12.80;75.90;;;;;;5049376;28;20040;-81
2021/10/07 17:19:05;;;;;;;5.10;2.50;;;12.80;75.70;;;;;;5061640;28;20116;-81
2021/10/07 17:21:31;;;;;;;15.73;9.37;;;12.80;75.70;;;;;;5045507;28;20452;-81
2021/10/07 17:23:57;;;;;;;72.00;58.57;;;12.80;75.90;;;;;;5042112;28;20132;-81
2021/10/07 17:26:23;;;;;;;87.93;57.97;;;12.80;75.90;;;;;;5048354;28;20049;-81
2021/10/07 17:28:49;;;;;;;54.83;36.50;;;12.80;75.90;;;;;;5048324;28;20028;-81
2021/10/07 17:31:15;;;;;;;45.03;32.07;;;12.80;75.90;;;;;;5050153;28;20025;-81
2021/10/07 17:33:41;;;;;;;18.47;15.57;;;12.80;75.80;;;;;;5047330;28;20029;-81
2021/10/07 17:36:08;;;;;;;10.73;8.03;;;12.80;75.90;;;;;;5047140;28;20136;-81
2021/10/07 17:38:34;;;;;;;10.13;6.00;;;12.80;75.80;;;;;;5047377;28;20060;-81
2021/10/07 17:41:00;;;;;;;6.67;4.77;;;12.80;75.70;;;;;;5044612;28;20048;-81
2021/10/07 17:43:27;;;;;;;16.60;11.40;;;12.70;75.70;;;;;;5045563;28;20083;-81
2021/10/07 17:45:52;;;;;;;21.00;13.83;;;12.70;75.70;;;;;;5047362;28;20542;-81
2021/10/07 17:48:20;;;;;;;11.73;7.30;;;12.70;75.60;;;;;;5051919;28;20033;-81
2021/10/07 17:50:46;;;;;;;30.23;18.23;;;12.70;75.60;;;;;;5050464;28;20537;-81
2021/10/07 17:53:15;;;;;;;4.00;2.77;;;12.70;75.40;;;;;;5051852;28;20114;-81
2021/10/07 17:55:41;;;;;;;3.80;2.60;;;12.60;75.10;;;;;;5049672;28;20036;-81
2021/10/07 17:58:06;;;;;;;15.03;10.73;;;12.60;75.10;;;;;;5050458;28;20029;-81
2021/10/07 18:00:33;;;;;;;19.73;14.07;;;12.60;75.30;;;;;;5050573;28;20590;-81
2021/10/07 18:02:59;;;;;;;6.20;4.07;;;12.60;75.20;;;;;;5034991;28;20439;-81
2021/10/07 18:05:24;;;;;;;6.73;3.73;;;12.70;75.00;;;;;;5049887;28;20037;-81
2021/10/07 18:07:51;;;;;;;5.03;3.17;;;12.60;74.90;;;;;;5050289;28;20025;-81
2021/10/07 18:10:16;;;;;;;22.77;19.13;;;12.60;74.70;;;;;;5050440;28;20021;-81
2021/10/07 18:12:43;;;;;;;9.70;7.53;;;12.60;74.60;;;;;;5047473;28;20104;-81
2021/10/07 18:15:10;;;;;;;5.80;3.93;;;12.60;74.60;;;;;;5047735;28;20032;-81
2021/10/07 18:17:36;;;;;;;4.43;2.83;;;12.60;74.40;;;;;;5039515;28;20388;-81
2021/10/07 18:20:04;;;;;;;5.03;3.37;;;12.60;74.60;;;;;;5046139;28;20050;-80
2021/10/07 18:22:30;;;;;;;6.13;3.17;;;12.60;74.60;;;;;;5050345;28;20391;-81
2021/10/07 18:24:56;;;;;;;7.53;3.47;;;12.60;74.40;;;;;;5051928;28;20052;-81
2021/10/07 18:27:25;;;;;;;6.73;3.87;;;12.60;74.60;;;;;;5046360;28;20025;-81
2021/10/07 18:29:52;;;;;;;7.03;4.03;;;12.60;74.20;;;;;;5040349;28;20114;-81
2021/10/07 18:32:21;;;;;;;5.87;3.70;;;12.60;74.10;;;;;;5038481;28;20106;-81
2021/10/07 18:34:47;;;;;;;7.03;3.57;;;12.60;74.10;;;;;;5062543;28;20028;-81
2021/10/07 18:37:15;;;;;;;9.43;5.07;;;12.50;74.20;;;;;;5071811;28;20025;-81
2021/10/07 18:39:41;;;;;;;5.00;3.43;;;12.50;74.20;;;;;;5061003;28;20598;-82
2021/10/07 18:42:07;;;;;;;3.50;2.97;;;12.50;74.20;;;;;;5050372;28;20031;-81
2021/10/07 18:44:32;;;;;;;7.07;4.13;;;12.40;74.10;;;;;;5044541;28;20120;-81
2021/10/07 18:46:58;;;;;;;5.30;3.20;;;12.40;74.40;;;;;;5034573;28;20057;-81
2021/10/07 18:49:24;;;;;;;8.47;4.40;;;12.40;74.40;;;;;;5031961;28;20636;-81
2021/10/07 18:51:50;;;;;;;7.43;2.63;;;12.40;74.60;;;;;;5032073;28;20059;-80
2021/10/07 18:54:16;;;;;;;5.33;3.40;;;12.40;74.50;;;;;;5046234;28;20056;-80
2021/10/07 18:56:42;;;;;;;6.17;4.03;;;12.40;74.30;;;;;;5051412;28;20044;-81
2021/10/07 18:59:08;;;;;;;4.50;2.87;;;12.30;74.40;;;;;;5050299;28;20112;-81
2021/10/07 19:01:35;;;;;;;5.30;3.40;;;12.30;74.70;;;;;;5041143;28;20053;-81
2021/10/07 19:04:03;;;;;;;4.27;3.10;;;12.30;74.70;;;;;;5046390;28;20369;-80
2021/10/07 19:06:31;;;;;;;5.00;3.60;;;12.30;74.80;;;;;;5044685;28;20115;-80
2021/10/07 19:08:58;;;;;;;7.13;3.57;;;12.30;74.60;;;;;;5040628;28;20029;-81
2021/10/07 19:11:24;;;;;;;4.00;3.60;;;12.30;74.70;;;;;;5034439;28;20041;-81
2021/10/07 19:13:50;;;;;;;5.03;3.63;;;12.40;74.80;;;;;;5045972;28;20373;-80
2021/10/07 19:16:16;;;;;;;6.13;3.33;;;12.30;74.40;;;;;;5047006;28;20022;-80
2021/10/07 19:18:42;;;;;;;7.07;3.70;;;12.40;74.40;;;;;;5049136;28;20380;-81
2021/10/07 19:21:08;;;;;;;5.20;3.83;;;12.40;74.80;;;;;;5043013;28;20025;-81
2021/10/07 19:23:34;;;;;;;4.43;3.53;;;12.40;74.40;;;;;;5034261;28;20165;-81
2021/10/07 19:26:02;;;;;;;6.13;3.80;;;12.40;74.70;;;;;;5051294;28;20040;-81
2021/10/07 19:28:28;;;;;;;5.87;3.80;;;12.50;74.70;;;;;;5045945;28;20082;-81
2021/10/07 19:30:55;;;;;;;6.33;3.93;;;12.50;74.40;;;;;;5052691;28;20112;-81
2021/10/07 19:33:21;;;;;;;7.00;4.00;;;12.50;74.40;;;;;;5052499;28;20044;-81
2021/10/07 19:35:47;;;;;;;5.13;4.00;;;12.40;74.30;;;;;;5053053;28;20053;-81
2021/10/07 19:38:13;;;;;;;5.93;3.80;;;12.40;74.50;;;;;;5048277;28;20447;-82
2021/10/07 19:40:39;;;;;;;5.23;3.40;;;12.40;74.60;;;;;;5040508;28;20033;-81
2021/10/07 19:43:05;;;;;;;6.40;3.97;;;12.40;74.70;;;;;;5044903;28;20055;-82
2021/10/07 19:45:30;;;;;;;4.43;3.60;;;12.30;74.70;;;;;;5052929;28;20033;-82
2021/10/07 19:47:56;;;;;;;5.57;4.00;;;12.30;74.90;;;;;;5036313;28;20119;-82
2021/10/07 19:50:22;;;;;;;6.33;4.87;;;12.30;74.80;;;;;;5050477;28;20023;-82
2021/10/07 19:52:48;;;;;;;6.37;4.37;;;12.30;75.20;;;;;;5050529;28;20029;-82
2021/10/07 19:55:13;;;;;;;6.10;4.50;;;12.30;75.00;;;;;;5051175;28;20032;-83
2021/10/07 19:57:39;;;;;;;6.10;4.70;;;12.40;75.50;;;;;;5052055;28;20052;-80
2021/10/07 20:00:08;;;;;;;6.43;5.00;;;12.30;75.20;;;;;;5048005;28;20025;-80
2021/10/07 20:02:34;;;;;;;12.03;5.47;;;12.30;75.50;;;;;;5030603;28;20033;-82
2021/10/07 20:04:59;;;;;;;6.57;4.77;;;12.30;75.70;;;;;;5050733;28;20507;-80
2021/10/07 20:07:25;;;;;;;7.30;5.17;;;12.40;75.90;;;;;;5049462;28;20017;-81
2021/10/07 20:09:51;;;;;;;6.37;4.53;;;12.40;75.90;;;;;;5048092;28;20031;-81
2021/10/07 20:12:17;;;;;;;6.37;4.73;;;12.40;76.10;;;;;;5053014;28;20021;-81
2021/10/07 20:14:43;;;;;;;7.00;4.57;;;12.30;76.00;;;;;;5045294;28;20021;-81
2021/10/07 20:17:09;;;;;;;7.07;5.03;;;12.40;76.20;;;;;;5049427;28;20384;-81
2021/10/07 20:19:34;;;;;;;6.73;4.90;;;12.40;76.20;;;;;;5050472;28;20033;-81
2021/10/07 20:22:01;;;;;;;7.30;5.93;;;12.50;76.00;;;;;;5052446;28;20033;-80
2021/10/07 20:24:28;;;;;;;7.27;4.90;;;12.50;76.00;;;;;;5044745;28;20758;-81
2021/10/07 20:26:54;;;;;;;6.93;5.67;;;12.50;75.80;;;;;;5046757;28;20082;-81
2021/10/07 20:29:20;;;;;;;7.73;5.53;;;12.50;75.70;;;;;;5048711;28;20067;-81
2021/10/07 20:31:46;;;;;;;6.53;5.00;;;12.50;75.60;;;;;;5040578;28;20112;-81
2021/10/07 20:37:24;;;;;;;6.00;5.40;;;12.60;75.60;;;;;;5044478;28;20534;-81
2021/10/07 20:39:45;;;;;;;12.48;6.22;;;12.60;75.30;;;;;;5048838;28;20060;-81
2021/10/07 20:42:13;;;;;;;7.73;5.17;;;12.50;75.20;;;;;;5044814;28;20029;-80
2021/10/07 20:44:39;;;;;;;6.53;5.73;;;12.60;75.10;;;;;;5045520;28;20112;-81
2021/10/07 20:47:07;;;;;;;10.00;6.13;;;12.50;74.90;;;;;;5046150;28;20428;-80
2021/10/07 20:49:33;;;;;;;6.73;6.07;;;12.50;74.90;;;;;;5049490;28;20049;-81
2021/10/07 20:51:59;;;;;;;8.37;5.63;;;12.40;75.00;;;;;;5052040;28;20049;-81
2021/10/07 20:54:25;;;;;;;7.93;5.97;;;12.30;75.30;;;;;;5049160;28;20472;-81
2021/10/07 20:56:52;;;;;;;6.73;5.97;;;12.30;75.40;;;;;;5051111;28;20083;-81
2021/10/07 20:59:18;;;;;;;8.00;6.10;;;12.40;75.30;;;;;;5062693;28;20021;-81
2021/10/07 21:01:45;;;;;;;6.70;5.83;;;12.30;75.30;;;;;;5050298;28;20029;-81
2021/10/07 21:04:11;;;;;;;9.47;5.47;;;12.30;75.30;;;;;;5046805;28;20476;-81
2021/10/07 21:06:37;;;;;;;7.53;6.00;;;12.40;75.50;;;;;;5048993;28;20388;-81
2021/10/07 21:09:04;;;;;;;7.73;5.43;;;12.30;75.10;;;;;;5043486;28;20025;-81
2021/10/07 21:11:30;;;;;;;6.90;6.00;;;12.30;75.30;;;;;;5046474;28;20071;-81
2021/10/07 21:13:59;;;;;;;7.97;5.80;;;12.40;75.30;;;;;;5044219;28;20040;-81
2021/10/07 21:16:27;;;;;;;6.77;5.40;;;12.40;75.20;;;;;;5042983;28;20071;-81
2021/10/07 21:18:53;;;;;;;8.57;5.53;;;12.40;75.10;;;;;;5047777;28;20021;-81
2021/10/07 21:21:19;;;;;;;7.23;5.33;;;12.50;75.20;;;;;;5051681;28;20651;-81
2021/10/07 21:23:45;;;;;;;8.50;5.27;;;12.50;75.10;;;;;;5046653;28;20107;-81
2021/10/07 21:26:10;;;;;;;5.87;5.27;;;12.50;74.90;;;;;;5025728;28;20033;-81
2021/10/07 21:28:36;;;;;;;6.00;5.23;;;12.50;74.80;;;;;;5045695;28;20078;-81
2021/10/07 21:31:02;;;;;;;8.17;5.37;;;12.50;74.70;;;;;;5050111;28;20100;-81
2021/10/07 21:33:27;;;;;;;8.27;5.10;;;12.50;74.80;;;;;;5048541;28;20032;-80
2021/10/07 21:35:53;;;;;;;5.70;4.97;;;12.50;75.00;;;;;;5048032;28;20329;-81
2021/10/07 21:38:19;;;;;;;8.80;6.10;;;12.50;75.10;;;;;;5049715;28;20021;-81
2021/10/07 21:40:45;;;;;;;9.20;6.70;;;12.50;75.30;;;;;;5044776;28;20443;-81
2021/10/07 21:43:11;;;;;;;11.93;6.83;;;12.50;75.50;;;;;;5045141;28;20031;-81
2021/10/07 21:45:38;;;;;;;7.50;6.20;;;12.50;75.70;;;;;;5047889;28;20032;-81
2021/10/07 21:48:04;;;;;;;8.83;6.37;;;12.50;75.90;;;;;;5043910;28;20423;-81
2021/10/07 21:50:31;;;;;;;8.30;7.20;;;12.50;76.00;;;;;;5044315;28;20115;-81
2021/10/07 21:52:56;;;;;;;12.27;7.17;;;12.50;76.10;;;;;;5049313;28;20028;-81
2021/10/07 21:55:22;;;;;;;12.70;7.17;;;12.50;76.30;;;;;;5050909;28;20021;-81
2021/10/07 21:57:48;;;;;;;11.13;7.20;;;12.50;76.50;;;;;;5046605;28;20111;-81
2021/10/07 22:00:41;;;;;;;8.67;7.00;;;12.50;76.60;;;;;;5051118;28;20468;-81
2021/10/07 22:03:07;;;;;;;;;;;12.50;76.60;;;;;;5041269;28;20039;-81
2021/10/07 22:05:33;;;;;;;10.00;6.13;;;12.50;76.60;;;;;;5049040;28;19912;-81
2021/10/07 22:07:59;;;;;;;9.90;6.80;;;12.50;76.50;;;;;;5048050;28;20187;-81
2021/10/07 22:10:24;;;;;;;9.40;7.10;;;12.50;76.60;;;;;;5048112;28;20600;-81
2021/10/07 22:12:50;;;;;;;10.30;7.07;;;12.50;76.80;;;;;;5043525;28;20143;-81
2021/10/07 22:15:17;;;;;;;10.37;7.17;;;12.50;76.90;;;;;;5050012;28;20025;-81
2021/10/07 22:17:43;;;;;;;8.63;7.07;;;12.50;77.00;;;;;;5044871;28;20032;-81
2021/10/07 22:20:10;;;;;;;11.17;7.87;;;12.50;77.10;;;;;;5041177;28;20110;-81
2021/10/07 22:22:36;;;;;;;8.03;6.60;;;12.50;77.20;;;;;;5057473;28;20072;-81
2021/10/07 22:25:02;;;;;;;9.93;7.30;;;12.50;77.30;;;;;;5044179;28;20045;-81
2021/10/07 22:27:27;;;;;;;8.57;6.90;;;12.50;77.30;;;;;;5045823;28;20321;-81
2021/10/07 22:29:53;;;;;;;8.07;6.73;;;12.50;77.30;;;;;;5041257;28;20062;-81
2021/10/07 22:32:19;;;;;;;7.17;6.30;;;12.50;77.30;;;;;;5046329;28;20029;-81
2021/10/07 22:34:45;;;;;;;9.30;6.60;;;12.50;77.30;;;;;;5060898;28;20025;-81
2021/10/07 22:37:10;;;;;;;10.27;6.83;;;12.50;77.30;;;;;;5047144;28;20455;-81
2021/10/07 22:39:36;;;;;;;11.57;7.07;;;12.50;77.30;;;;;;5043541;28;20086;-81
2021/10/07 22:42:02;;;;;;;11.00;7.30;;;12.50;77.40;;;;;;5049245;28;20025;-81
2021/10/07 22:44:28;;;;;;;9.90;6.80;;;12.50;77.40;;;;;;5045228;28;20553;-81
2021/10/07 22:46:53;;;;;;;10.60;7.33;;;12.50;77.40;;;;;;5052451;28;20383;-81
2021/10/07 22:49:19;;;;;;;10.53;7.20;;;12.50;77.50;;;;;;5048438;28;20029;-81
2021/10/07 22:51:45;;;;;;;10.53;6.43;;;12.50;77.50;;;;;;5047610;28;20037;-81
2021/10/07 22:54:11;;;;;;;8.23;6.50;;;12.50;77.60;;;;;;5048020;28;20033;-81
2021/10/07 22:56:37;;;;;;;6.90;5.40;;;12.40;77.60;;;;;;5053718;28;20464;-81
2021/10/07 22:59:02;;;;;;;7.63;5.47;;;12.40;77.80;;;;;;5050881;28;20116;-81
2021/10/07 23:01:28;;;;;;;9.40;5.57;;;12.30;77.90;;;;;;5050340;28;20029;-81
2021/10/07 23:03:54;;;;;;;5.13;4.57;;;12.40;78.10;;;;;;5044470;28;20515;-81
2021/10/07 23:06:20;;;;;;;6.67;5.87;;;12.40;78.20;;;;;;5053929;28;20104;-81
2021/10/07 23:08:45;;;;;;;7.33;6.50;;;12.40;78.20;;;;;;5049319;28;20035;-81
2021/10/07 23:11:11;;;;;;;16.90;7.07;;;12.40;78.10;;;;;;5049240;28;20029;-81
2021/10/07 23:13:37;;;;;;;10.23;7.60;;;12.40;78.10;;;;;;5047513;28;20127;-81
2021/10/07 23:16:05;;;;;;;9.20;8.23;;;12.40;78.10;;;;;;5050872;28;20063;-81
2021/10/07 23:18:31;;;;;;;9.50;6.97;;;12.40;77.90;;;;;;5050879;28;20032;-81
2021/10/07 23:20:56;;;;;;;10.20;7.60;;;12.40;77.90;;;;;;5048661;28;20427;-81
2021/10/07 23:23:23;;;;;;;9.83;8.80;;;12.40;78.10;;;;;;5047148;28;20106;-81
2021/10/07 23:25:48;;;;;;;7.77;6.83;;;12.40;78.20;;;;;;5042535;28;20064;-81
2021/10/07 23:28:14;;;;;;;9.43;7.27;;;12.40;78.20;;;;;;5049346;28;20575;-81
2021/10/07 23:30:40;;;;;;;10.20;7.40;;;12.40;78.30;;;;;;5046851;28;20396;-81
2021/10/07 23:33:06;;;;;;;10.43;7.87;;;12.40;78.30;;;;;;5048377;28;20017;-81
2021/10/07 23:35:35;;;;;;;10.33;6.83;;;12.40;78.30;;;;;;5044127;28;20068;-81
2021/10/07 23:38:02;;;;;;;10.57;7.93;;;12.40;78.40;;;;;;5047661;28;20026;-81
2021/10/07 23:40:28;;;;;;;9.77;7.20;;;12.30;78.40;;;;;;5051539;28;20043;-81
2021/10/07 23:42:53;;;;;;;9.73;6.47;;;12.30;78.50;;;;;;5046206;28;20024;-81
2021/10/07 23:45:19;;;;;;;6.40;4.53;;;12.30;78.70;;;;;;5047544;28;20120;-81
2021/10/07 23:47:45;;;;;;;8.00;4.47;;;12.30;78.80;;;;;;5051156;28;20083;-81
2021/10/07 23:50:11;;;;;;;7.80;5.00;;;12.30;78.60;;;;;;5043362;28;20376;-81
2021/10/07 23:52:37;;;;;;;5.40;4.13;;;12.30;78.40;;;;;;5052089;28;20017;-81
2021/10/07 23:55:03;;;;;;;5.73;4.70;;;12.30;78.50;;;;;;5053711;28;20060;-81
2021/10/07 23:57:29;;;;;;;10.20;5.60;;;12.30;78.50;;;;;;5050636;28;20045;-81
2021/10/07 23:59:54;;;;;;;8.17;7.13;;;12.30;78.60;;;;;;5039876;28;20032;-81
